createdAt,value
2023-03-15T00:03:08.368Z,20.6
2023-03-15T00:08:08.884Z,20.6
2023-03-15T00:13:28.907Z,20.7
2023-03-15T00:18:26.938Z,20.7
2023-03-15T00:23:27.246Z,20.6
2023-03-15T00:28:30.442Z,20.7
2023-03-15T00:33:30.484Z,20.7
2023-03-15T00:38:31.234Z,20.6
2023-03-15T00:43:31.671Z,20.7
2023-03-15T00:48:32.332Z,20.7
2023-03-15T00:53:32.880Z,20.5
2023-03-15T00:58:33.528Z,20.5
2023-03-15T01:03:36.728Z,20.6
2023-03-15T01:08:37.317Z,20.7
2023-03-15T01:13:40.254Z,20.5
2023-03-15T01:18:42.036Z,20.6
2023-03-15T01:23:44.869Z,20.7
2023-03-15T01:28:45.483Z,20.5
2023-03-15T01:33:46.024Z,20.6
2023-03-15T01:38:46.626Z,20.6
2023-03-15T01:43:47.510Z,20.6
2023-03-15T01:48:47.656Z,20.6
2023-03-15T01:53:52.682Z,20.5
2023-03-15T01:58:55.197Z,20.6
2023-03-15T02:03:55.226Z,20.5
2023-03-15T02:08:55.564Z,20.6
2023-03-15T02:13:56.101Z,20.5
2023-03-15T02:19:05.321Z,20.6
2023-03-15T02:24:16.507Z,20.5
2023-03-15T02:29:16.009Z,20.6
2023-03-15T02:34:19.181Z,20.5
2023-03-15T02:39:21.834Z,20.6
2023-03-15T02:44:21.951Z,20.5
2023-03-15T02:49:22.477Z,20.5
2023-03-15T02:54:22.927Z,20.5
2023-03-15T02:59:23.332Z,20.5
2023-03-15T03:04:23.820Z,20.5
2023-03-15T03:09:27.227Z,20.5
2023-03-15T03:14:26.929Z,20.5
2023-03-15T03:19:27.403Z,20.5
2023-03-15T03:24:28.132Z,20.5
2023-03-15T03:29:28.927Z,20.4
2023-03-15T03:34:29.496Z,20.5
2023-03-15T03:39:30.052Z,20.5
2023-03-15T03:44:30.228Z,20.5
2023-03-15T03:49:30.835Z,20.5
2023-03-15T03:54:31.470Z,20.4
2023-03-15T03:59:32.187Z,20.4
2023-03-15T04:04:34.455Z,20.4
2023-03-15T04:09:34.437Z,20.3
2023-03-15T04:14:34.802Z,20.4
2023-03-15T04:19:35.922Z,20.4
2023-03-15T04:24:36.477Z,20.4
2023-03-15T04:29:48.399Z,20.3
2023-03-15T04:39:47.187Z,20.3
2023-03-15T04:44:48.048Z,20.4
2023-03-15T04:49:48.616Z,20.4
2023-03-15T04:54:52.123Z,20.2
2023-03-15T04:59:52.198Z,20.3
2023-03-15T05:04:52.778Z,20.4
2023-03-15T05:10:12.632Z,20.2
2023-03-15T05:15:10.760Z,20.4
2023-03-15T05:20:11.246Z,20.5
2023-03-15T05:25:11.719Z,20.4
2023-03-15T05:30:12.133Z,20.3
2023-03-15T05:35:12.788Z,20.5
2023-03-15T05:40:13.222Z,20.4
2023-03-15T05:45:16.522Z,20.5
2023-03-15T05:50:16.606Z,20.4
2023-03-15T05:55:17.117Z,20.3
2023-03-15T06:00:17.821Z,20.3
2023-03-15T06:05:18.410Z,20.4
2023-03-15T06:10:19.076Z,20.5
2023-03-15T06:15:19.640Z,20.5
2023-03-15T06:20:20.391Z,20.6
2023-03-15T06:25:20.782Z,20.7
2023-03-15T06:30:23.944Z,20.6
2023-03-15T06:35:23.688Z,20.7
2023-03-15T06:40:24.182Z,20.7
2023-03-15T06:45:24.568Z,20.7
2023-03-15T06:50:27.574Z,20.7
2023-03-15T06:55:28.507Z,20.9
2023-03-15T07:00:31.241Z,20.7
2023-03-15T07:05:31.264Z,20.9
2023-03-15T07:10:31.842Z,20.9
2023-03-15T07:15:32.279Z,20.9
2023-03-15T07:20:41.657Z,20.9
2023-03-15T07:25:52.284Z,20.9
2023-03-15T07:30:41.628Z,20.9
2023-03-15T07:35:42.324Z,20.9
2023-03-15T07:40:42.989Z,20.9
2023-03-15T07:45:43.581Z,21
2023-03-15T07:50:44.242Z,21
2023-03-15T07:55:44.819Z,20.9
2023-03-15T08:00:47.120Z,20.7
2023-03-15T08:05:47.220Z,20.9
2023-03-15T08:10:47.806Z,20.6
2023-03-15T08:15:48.295Z,21
2023-03-15T08:20:48.943Z,21
2023-03-15T08:25:48.413Z,21
2023-03-15T08:30:51.716Z,21
2023-03-15T08:35:51.926Z,20.9
2023-03-15T08:40:52.479Z,21
2023-03-15T08:46:01.624Z,20.9
2023-03-15T08:50:53.686Z,20.9
2023-03-15T08:55:56.856Z,21
2023-03-15T09:00:59.666Z,20.9
2023-03-15T09:05:59.648Z,21
2023-03-15T09:11:00.107Z,20.9
2023-03-15T09:16:00.664Z,20.9
2023-03-15T09:21:01.087Z,21
2023-03-15T09:26:01.657Z,20.9
2023-03-15T09:31:02.404Z,21.1
2023-03-15T09:36:02.884Z,20.9
2023-03-15T09:41:03.441Z,20.9
2023-03-15T09:46:03.966Z,21.1
2023-03-15T09:51:04.605Z,21.2
2023-03-15T09:56:04.925Z,21.1
2023-03-15T10:01:08.365Z,21.2
2023-03-15T10:06:08.148Z,21.2
2023-03-15T10:11:08.747Z,21.2
2023-03-15T10:16:11.968Z,21.2
2023-03-15T10:21:12.293Z,21.1
2023-03-15T10:26:15.394Z,21.3
2023-03-15T10:31:21.443Z,21.2
2023-03-15T10:36:15.937Z,21.2
2023-03-15T10:41:27.094Z,21.1
2023-03-15T10:46:19.116Z,21.2
2023-03-15T10:51:19.741Z,21.2
2023-03-15T10:56:20.083Z,21.2
2023-03-15T11:01:23.478Z,21.1
2023-03-15T11:06:23.408Z,21.3
2023-03-15T11:11:24.083Z,21.4
2023-03-15T11:16:27.328Z,21
2023-03-15T11:21:27.458Z,20.6
2023-03-15T11:26:32.914Z,20.9
2023-03-15T11:31:30.761Z,21.1
2023-03-15T11:36:31.380Z,20.9
2023-03-15T11:41:32.005Z,21
2023-03-15T11:46:35.143Z,20.6
2023-03-15T11:51:35.312Z,21.1
2023-03-15T11:56:35.818Z,20.9
2023-03-15T12:01:36.266Z,21.2
2023-03-15T12:06:36.925Z,21.1
2023-03-15T12:11:37.538Z,21.1
2023-03-15T12:16:38.177Z,21.1
2023-03-15T12:21:38.805Z,21
2023-03-15T12:26:39.617Z,21.4
2023-03-15T12:31:39.936Z,21.2
2023-03-15T12:36:40.142Z,20.9
2023-03-15T12:41:40.884Z,20.8
2023-03-15T12:46:41.332Z,20.6
2023-03-15T12:51:41.960Z,20.9
2023-03-15T12:56:45.007Z,20.7
2023-03-15T13:01:45.332Z,21.2
2023-03-15T13:06:48.760Z,21.5
2023-03-15T13:11:53.016Z,21.7
2023-03-15T13:16:52.989Z,21.8
2023-03-15T13:21:53.421Z,21.7
2023-03-15T13:26:55.603Z,21.6
2023-03-15T13:31:56.091Z,21.7
2023-03-15T13:36:56.867Z,21.7
2023-03-15T13:41:55.540Z,21.8
2023-03-15T13:46:56.220Z,21.7
2023-03-15T13:51:56.747Z,21.8
2023-03-15T13:56:57.392Z,21.8
2023-03-15T14:01:58.058Z,21.8
2023-03-15T14:06:58.371Z,21.9
2023-03-15T14:12:01.938Z,21.8
2023-03-15T14:17:05.571Z,21.9
2023-03-15T14:22:02.654Z,21.9
2023-03-15T14:27:02.919Z,21.8
2023-03-15T14:32:03.588Z,21.9
2023-03-15T14:37:06.915Z,21.9
2023-03-15T14:42:06.719Z,21.9
2023-03-15T14:47:07.390Z,21.9
2023-03-15T14:52:07.755Z,21.8
2023-03-15T14:57:08.472Z,21.8
2023-03-15T15:02:09.353Z,21.9
2023-03-15T15:07:12.533Z,21.8
2023-03-15T15:12:15.489Z,21.8
2023-03-15T15:17:18.475Z,21.8
2023-03-15T15:22:18.584Z,21.8
2023-03-15T15:27:19.041Z,21.8
2023-03-15T15:32:22.461Z,21.9
2023-03-15T15:37:22.540Z,21.8
2023-03-15T15:42:25.855Z,21.9
2023-03-15T15:47:25.956Z,21.8
2023-03-15T15:52:27.253Z,21.8
2023-03-15T15:57:27.714Z,21.9
2023-03-15T16:02:31.217Z,21.9
2023-03-15T16:07:31.413Z,21.9
2023-03-15T16:12:32.066Z,21.9
2023-03-15T16:17:32.670Z,21.8
2023-03-15T16:22:36.009Z,21.9
2023-03-15T16:27:35.929Z,21.8
2023-03-15T16:32:44.275Z,21.8
2023-03-15T16:37:37.227Z,21.9
2023-03-15T16:42:37.766Z,21.9
2023-03-15T16:47:39.250Z,21.9
2023-03-15T16:52:39.702Z,21.9
2023-03-15T16:57:40.352Z,21.9
2023-03-15T17:02:41.021Z,21.9
2023-03-15T17:07:41.716Z,22
2023-03-15T17:12:44.912Z,22
2023-03-15T17:17:45.106Z,21.9
2023-03-15T17:22:45.633Z,21.9
2023-03-15T17:27:46.113Z,22
2023-03-15T17:32:49.584Z,21.9
2023-03-15T17:37:49.547Z,21.9
2023-03-15T17:42:50.196Z,21.9
2023-03-15T17:47:50.727Z,21.9
2023-03-15T17:52:54.384Z,21.9
2023-03-15T17:57:55.707Z,21.9
2023-03-15T18:02:57.819Z,21.8
2023-03-15T18:08:00.884Z,21.8
2023-03-15T18:13:00.978Z,21.8
2023-03-15T18:18:01.396Z,21.6
2023-03-15T18:23:02.006Z,21.7
2023-03-15T18:28:02.605Z,21.7
2023-03-15T18:33:11.513Z,21.7
2023-03-15T18:38:10.738Z,21.6
2023-03-15T18:43:11.201Z,21.7
2023-03-15T18:48:11.823Z,21.6
2023-03-15T18:53:12.543Z,21.6
2023-03-15T18:58:13.145Z,21.7
2023-03-15T19:03:16.301Z,21.7
2023-03-15T19:08:16.313Z,21.5
2023-03-15T19:13:17.799Z,21.5
2023-03-15T19:18:17.964Z,21.4
2023-03-15T19:23:18.594Z,21.4
2023-03-15T19:28:22.082Z,21.3
2023-03-15T19:33:22.082Z,21.3
2023-03-15T19:38:22.439Z,21.4
2023-03-15T19:43:23.104Z,21.4
2023-03-15T19:48:24.475Z,21.3
2023-03-15T19:53:25.871Z,21.3
2023-03-15T19:58:27.097Z,21.2
2023-03-15T20:03:27.652Z,21.3
2023-03-15T20:08:27.993Z,21.3
2023-03-15T20:13:29.510Z,21.2
2023-03-15T20:18:32.647Z,21.2
2023-03-15T20:23:32.819Z,21.2
2023-03-15T20:28:33.401Z,21.1
2023-03-15T20:33:34.152Z,21.1
2023-03-15T20:38:34.813Z,21.2
2023-03-15T20:43:35.267Z,21.1
2023-03-15T20:48:35.778Z,21
2023-03-15T20:53:36.483Z,21.1
2023-03-15T20:58:36.788Z,21.1
2023-03-15T21:03:40.187Z,21.1
2023-03-15T21:08:40.139Z,21
2023-03-15T21:13:40.668Z,20.6
2023-03-15T21:18:41.070Z,20.7
2023-03-15T21:23:41.577Z,21
2023-03-15T21:28:42.130Z,21
2023-03-15T21:33:42.563Z,20.9
2023-03-15T21:38:43.920Z,21
2023-03-15T21:43:44.495Z,20.9
2023-03-15T21:48:45.132Z,20.9
2023-03-15T21:53:45.502Z,20.9
2023-03-15T21:58:46.343Z,20.7
2023-03-15T22:03:46.796Z,20.9
2023-03-15T22:08:47.398Z,20.9
2023-03-15T22:13:48.057Z,20.9
2023-03-15T22:18:51.588Z,20.7
2023-03-15T22:23:51.850Z,20.8
2023-03-15T22:28:52.030Z,20.8
2023-03-15T22:33:52.694Z,20.8
2023-03-15T22:38:53.049Z,20.7
2023-03-15T22:43:53.688Z,20.7
2023-03-15T22:48:55.224Z,20.7
2023-03-15T22:53:55.247Z,20.7
2023-03-15T22:58:55.940Z,20.6
2023-03-15T23:03:56.420Z,20.6
2023-03-15T23:08:56.751Z,20.7
2023-03-15T23:13:57.529Z,20.5
2023-03-15T23:18:57.981Z,20.6
2023-03-15T23:23:58.684Z,20.5
2023-03-15T23:28:59.364Z,20.5
2023-03-15T23:34:00.012Z,20.6
2023-03-15T23:39:00.632Z,20.6
2023-03-15T23:44:01.083Z,20.6
2023-03-15T23:49:01.749Z,20.7
2023-03-15T23:54:02.266Z,20.6
2023-03-15T23:59:02.965Z,20.6
